sensor_id;sensor_type;location;lat;lon;timestamp;temperature;humidity
4647;DHT22;2336;47.822;7.564;2023-02-01T00:00:17;5.10;99.90
4647;DHT22;2336;47.822;7.564;2023-02-01T00:02:43;5.10;99.90
4647;DHT22;2336;47.822;7.564;2023-02-01T00:05:10;5.00;99.90
4647;DHT22;2336;47.822;7.564;2023-02-01T00:07:37;5.00;99.90
4647;DHT22;2336;47.822;7.564;2023-02-01T00:10:06;5.00;99.90
4647;DHT22;2336;47.822;7.564;2023-02-01T00:12:33;5.00;99.90
4647;DHT22;2336;47.822;7.564;2023-02-01T00:15:00;4.90;99.90
4647;DHT22;2336;47.822;7.564;2023-02-01T00:17:28;4.90;99.90
4647;DHT22;2336;47.822;7.564;2023-02-01T00:19:55;4.90;99.90
4647;DHT22;2336;47.822;7.564;2023-02-01T00:22:21;4.90;99.90
4647;DHT22;2336;47.822;7.564;2023-02-01T00:24:48;4.90;99.90
4647;DHT22;2336;47.822;7.564;2023-02-01T00:27:15;4.90;99.90
4647;DHT22;2336;47.822;7.564;2023-02-01T00:29:45;4.80;99.90
4647;DHT22;2336;47.822;7.564;2023-02-01T00:32:12;4.80;99.90
4647;DHT22;2336;47.822;7.564;2023-02-01T00:34:40;4.80;99.90
4647;DHT22;2336;47.822;7.564;2023-02-01T00:37:07;4.80;99.90
4647;DHT22;2336;47.822;7.564;2023-02-01T00:39:33;4.80;99.90
4647;DHT22;2336;47.822;7.564;2023-02-01T00:42:00;4.70;99.90
4647;DHT22;2336;47.822;7.564;2023-02-01T00:44:28;4.70;99.90
4647;DHT22;2336;47.822;7.564;2023-02-01T00:46:58;4.60;99.90
4647;DHT22;2336;47.822;7.564;2023-02-01T00:49:25;4.60;99.90
4647;DHT22;2336;47.822;7.564;2023-02-01T00:51:53;4.60;99.90
4647;DHT22;2336;47.822;7.564;2023-02-01T00:54:20;4.60;99.90
4647;DHT22;2336;47.822;7.564;2023-02-01T00:56:46;4.50;99.90
4647;DHT22;2336;47.822;7.564;2023-02-01T00:59:13;4.50;99.90
4647;DHT22;2336;47.822;7.564;2023-02-01T01:01:40;4.50;99.90
4647;DHT22;2336;47.822;7.564;2023-02-01T01:04:07;4.40;99.90
4647;DHT22;2336;47.822;7.564;2023-02-01T01:06:34;4.40;99.90
4647;DHT22;2336;47.822;7.564;2023-02-01T01:09:03;4.40;99.90
4647;DHT22;2336;47.822;7.564;2023-02-01T01:11:34;4.30;99.90
4647;DHT22;2336;47.822;7.564;2023-02-01T01:14:01;4.30;99.90
4647;DHT22;2336;47.822;7.564;2023-02-01T01:16:29;4.30;99.90
4647;DHT22;2336;47.822;7.564;2023-02-01T01:18:56;4.30;99.90
4647;DHT22;2336;47.822;7.564;2023-02-01T01:21:23;4.30;99.90
4647;DHT22;2336;47.822;7.564;2023-02-01T01:23:50;4.20;99.90
4647;DHT22;2336;47.822;7.564;2023-02-01T01:26:20;4.20;99.90
4647;DHT22;2336;47.822;7.564;2023-02-01T01:28:48;4.20;99.90
4647;DHT22;2336;47.822;7.564;2023-02-01T01:31:16;4.20;99.90
4647;DHT22;2336;47.822;7.564;2023-02-01T01:33:44;4.20;99.90
4647;DHT22;2336;47.822;7.564;2023-02-01T01:36:11;4.20;99.90
4647;DHT22;2336;47.822;7.564;2023-02-01T01:38:38;4.20;99.90
4647;DHT22;2336;47.822;7.564;2023-02-01T01:41:06;4.20;99.90
4647;DHT22;2336;47.822;7.564;2023-02-01T01:43:53;4.20;99.90
4647;DHT22;2336;47.822;7.564;2023-02-01T01:46:21;4.10;99.90
4647;DHT22;2336;47.822;7.564;2023-02-01T01:48:52;4.10;99.90
4647;DHT22;2336;47.822;7.564;2023-02-01T01:51:21;4.10;99.90
4647;DHT22;2336;47.822;7.564;2023-02-01T01:53:54;4.00;99.90
4647;DHT22;2336;47.822;7.564;2023-02-01T01:56:22;4.00;99.90
4647;DHT22;2336;47.822;7.564;2023-02-01T01:58:52;3.90;99.90
4647;DHT22;2336;47.822;7.564;2023-02-01T02:01:19;3.90;99.90
4647;DHT22;2336;47.822;7.564;2023-02-01T02:03:46;3.90;99.90
4647;DHT22;2336;47.822;7.564;2023-02-01T02:06:21;3.90;99.90
4647;DHT22;2336;47.822;7.564;2023-02-01T02:08:48;3.90;99.90
4647;DHT22;2336;47.822;7.564;2023-02-01T02:11:17;3.90;99.90
4647;DHT22;2336;47.822;7.564;2023-02-01T02:13:46;3.90;99.90
4647;DHT22;2336;47.822;7.564;2023-02-01T02:16:24;3.90;99.90
4647;DHT22;2336;47.822;7.564;2023-02-01T02:19:01;3.90;99.90
4647;DHT22;2336;47.822;7.564;2023-02-01T02:21:50;3.90;99.90
4647;DHT22;2336;47.822;7.564;2023-02-01T02:24:43;3.90;99.90
4647;DHT22;2336;47.822;7.564;2023-02-01T02:27:22;3.90;99.90
4647;DHT22;2336;47.822;7.564;2023-02-01T02:36:27;3.80;99.90
4647;DHT22;2336;47.822;7.564;2023-02-01T02:39:06;3.80;99.90
4647;DHT22;2336;47.822;7.564;2023-02-01T02:41:42;3.80;99.90
4647;DHT22;2336;47.822;7.564;2023-02-01T02:44:35;3.90;99.90
4647;DHT22;2336;47.822;7.564;2023-02-01T02:47:41;3.90;99.90
4647;DHT22;2336;47.822;7.564;2023-02-01T02:50:15;3.90;99.90
4647;DHT22;2336;47.822;7.564;2023-02-01T02:53:08;3.90;99.90
4647;DHT22;2336;47.822;7.564;2023-02-01T02:55:54;3.90;99.90
4647;DHT22;2336;47.822;7.564;2023-02-01T02:58:39;4.00;99.90
4647;DHT22;2336;47.822;7.564;2023-02-01T03:01:24;4.00;99.90
4647;DHT22;2336;47.822;7.564;2023-02-01T03:04:08;3.90;99.90
4647;DHT22;2336;47.822;7.564;2023-02-01T03:06:37;4.00;99.90
4647;DHT22;2336;47.822;7.564;2023-02-01T03:09:12;4.00;99.90
4647;DHT22;2336;47.822;7.564;2023-02-01T03:11:42;3.90;99.90
4647;DHT22;2336;47.822;7.564;2023-02-01T03:14:29;3.90;99.90
4647;DHT22;2336;47.822;7.564;2023-02-01T03:17:00;4.00;99.90
4647;DHT22;2336;47.822;7.564;2023-02-01T03:19:33;3.90;99.90
4647;DHT22;2336;47.822;7.564;2023-02-01T03:22:03;3.90;99.90
4647;DHT22;2336;47.822;7.564;2023-02-01T03:24:36;3.90;99.90
4647;DHT22;2336;47.822;7.564;2023-02-01T03:27:07;3.90;99.90
4647;DHT22;2336;47.822;7.564;2023-02-01T03:29:39;3.80;99.90
4647;DHT22;2336;47.822;7.564;2023-02-01T03:32:08;3.80;99.90
4647;DHT22;2336;47.822;7.564;2023-02-01T03:34:36;3.80;99.90
4647;DHT22;2336;47.822;7.564;2023-02-01T03:37:04;3.80;99.90
4647;DHT22;2336;47.822;7.564;2023-02-01T03:39:36;3.80;99.90
4647;DHT22;2336;47.822;7.564;2023-02-01T03:42:08;3.80;99.90
4647;DHT22;2336;47.822;7.564;2023-02-01T03:44:40;3.80;99.90
4647;DHT22;2336;47.822;7.564;2023-02-01T03:47:13;3.80;99.90
4647;DHT22;2336;47.822;7.564;2023-02-01T03:49:43;3.80;99.90
4647;DHT22;2336;47.822;7.564;2023-02-01T03:52:14;3.70;99.90
4647;DHT22;2336;47.822;7.564;2023-02-01T03:54:44;3.80;99.90
4647;DHT22;2336;47.822;7.564;2023-02-01T03:57:13;3.70;99.90
4647;DHT22;2336;47.822;7.564;2023-02-01T03:59:41;3.80;99.90
4647;DHT22;2336;47.822;7.564;2023-02-01T04:02:08;3.80;99.90
4647;DHT22;2336;47.822;7.564;2023-02-01T04:04:35;3.70;99.90
4647;DHT22;2336;47.822;7.564;2023-02-01T04:07:02;3.70;99.90
4647;DHT22;2336;47.822;7.564;2023-02-01T04:09:29;3.80;99.90
4647;DHT22;2336;47.822;7.564;2023-02-01T04:11:57;3.70;99.90
4647;DHT22;2336;47.822;7.564;2023-02-01T04:14:23;3.70;99.90
4647;DHT22;2336;47.822;7.564;2023-02-01T04:16:50;3.70;99.90
4647;DHT22;2336;47.822;7.564;2023-02-01T04:19:17;3.80;99.90
4647;DHT22;2336;47.822;7.564;2023-02-01T04:21:44;3.80;99.90
4647;DHT22;2336;47.822;7.564;2023-02-01T04:24:11;3.80;99.90
4647;DHT22;2336;47.822;7.564;2023-02-01T04:26:38;3.80;99.90
4647;DHT22;2336;47.822;7.564;2023-02-01T04:29:07;3.80;99.90
4647;DHT22;2336;47.822;7.564;2023-02-01T04:31:35;3.80;99.90
4647;DHT22;2336;47.822;7.564;2023-02-01T04:34:01;3.90;99.90
4647;DHT22;2336;47.822;7.564;2023-02-01T04:36:28;3.90;99.90
4647;DHT22;2336;47.822;7.564;2023-02-01T04:38:55;3.80;99.90
4647;DHT22;2336;47.822;7.564;2023-02-01T04:41:22;3.80;99.90
4647;DHT22;2336;47.822;7.564;2023-02-01T04:43:49;3.80;99.90
4647;DHT22;2336;47.822;7.564;2023-02-01T04:46:19;3.80;99.90
4647;DHT22;2336;47.822;7.564;2023-02-01T04:48:45;3.80;99.90
4647;DHT22;2336;47.822;7.564;2023-02-01T04:51:12;3.90;99.90
4647;DHT22;2336;47.822;7.564;2023-02-01T04:53:40;3.80;99.90
4647;DHT22;2336;47.822;7.564;2023-02-01T04:56:07;3.80;99.90
4647;DHT22;2336;47.822;7.564;2023-02-01T04:58:34;3.80;99.90
4647;DHT22;2336;47.822;7.564;2023-02-01T05:01:02;3.80;99.90
4647;DHT22;2336;47.822;7.564;2023-02-01T05:03:32;3.80;99.90
4647;DHT22;2336;47.822;7.564;2023-02-01T05:05:59;3.80;99.90
4647;DHT22;2336;47.822;7.564;2023-02-01T05:08:26;3.80;99.90
4647;DHT22;2336;47.822;7.564;2023-02-01T05:10:54;3.90;99.90
4647;DHT22;2336;47.822;7.564;2023-02-01T05:13:21;3.80;99.90
4647;DHT22;2336;47.822;7.564;2023-02-01T05:16:05;3.80;99.90
4647;DHT22;2336;47.822;7.564;2023-02-01T05:18:34;3.90;99.90
4647;DHT22;2336;47.822;7.564;2023-02-01T05:21:00;3.90;99.90
4647;DHT22;2336;47.822;7.564;2023-02-01T05:23:27;3.90;99.90
4647;DHT22;2336;47.822;7.564;2023-02-01T05:25:58;3.90;99.90
4647;DHT22;2336;47.822;7.564;2023-02-01T05:28:25;4.00;99.90
4647;DHT22;2336;47.822;7.564;2023-02-01T05:30:52;3.90;99.90
4647;DHT22;2336;47.822;7.564;2023-02-01T05:33:19;4.00;99.90
4647;DHT22;2336;47.822;7.564;2023-02-01T05:35:47;3.90;99.90
4647;DHT22;2336;47.822;7.564;2023-02-01T05:38:15;3.90;99.90
4647;DHT22;2336;47.822;7.564;2023-02-01T05:40:42;3.90;99.90
4647;DHT22;2336;47.822;7.564;2023-02-01T05:43:14;3.90;99.90
4647;DHT22;2336;47.822;7.564;2023-02-01T05:45:41;3.90;99.90
4647;DHT22;2336;47.822;7.564;2023-02-01T05:48:08;3.90;99.90
4647;DHT22;2336;47.822;7.564;2023-02-01T05:50:35;3.90;99.90
4647;DHT22;2336;47.822;7.564;2023-02-01T05:53:03;4.00;99.90
4647;DHT22;2336;47.822;7.564;2023-02-01T05:55:29;4.00;99.90
4647;DHT22;2336;47.822;7.564;2023-02-01T05:57:56;4.00;99.90
4647;DHT22;2336;47.822;7.564;2023-02-01T06:00:23;4.00;99.90
4647;DHT22;2336;47.822;7.564;2023-02-01T06:02:50;4.00;99.90
4647;DHT22;2336;47.822;7.564;2023-02-01T06:05:16;4.00;99.90
4647;DHT22;2336;47.822;7.564;2023-02-01T06:07:43;4.00;99.90
4647;DHT22;2336;47.822;7.564;2023-02-01T06:10:11;4.10;99.90
4647;DHT22;2336;47.822;7.564;2023-02-01T06:12:38;4.10;99.90
4647;DHT22;2336;47.822;7.564;2023-02-01T06:15:06;4.10;99.90
4647;DHT22;2336;47.822;7.564;2023-02-01T06:17:33;4.00;99.90
4647;DHT22;2336;47.822;7.564;2023-02-01T06:20:00;4.00;99.90
4647;DHT22;2336;47.822;7.564;2023-02-01T06:22:26;4.10;99.90
4647;DHT22;2336;47.822;7.564;2023-02-01T06:24:53;4.10;99.90
4647;DHT22;2336;47.822;7.564;2023-02-01T06:27:21;4.10;99.90
4647;DHT22;2336;47.822;7.564;2023-02-01T06:29:48;4.00;99.90
4647;DHT22;2336;47.822;7.564;2023-02-01T06:32:15;4.10;99.90
4647;DHT22;2336;47.822;7.564;2023-02-01T06:34:42;4.00;99.90
4647;DHT22;2336;47.822;7.564;2023-02-01T06:37:09;4.10;99.90
4647;DHT22;2336;47.822;7.564;2023-02-01T06:39:36;4.10;99.90
4647;DHT22;2336;47.822;7.564;2023-02-01T06:42:03;4.10;99.90
4647;DHT22;2336;47.822;7.564;2023-02-01T06:44:31;4.00;99.90
4647;DHT22;2336;47.822;7.564;2023-02-01T06:46:58;4.00;99.90
4647;DHT22;2336;47.822;7.564;2023-02-01T06:49:24;4.00;99.90
4647;DHT22;2336;47.822;7.564;2023-02-01T06:51:51;4.10;99.90
4647;DHT22;2336;47.822;7.564;2023-02-01T06:54:18;4.10;99.90
4647;DHT22;2336;47.822;7.564;2023-02-01T06:56:45;4.10;99.90
4647;DHT22;2336;47.822;7.564;2023-02-01T06:59:11;4.00;99.90
4647;DHT22;2336;47.822;7.564;2023-02-01T07:01:40;4.10;99.90
4647;DHT22;2336;47.822;7.564;2023-02-01T07:04:06;4.10;99.90
4647;DHT22;2336;47.822;7.564;2023-02-01T07:06:35;4.10;99.90
4647;DHT22;2336;47.822;7.564;2023-02-01T07:09:01;4.10;99.90
4647;DHT22;2336;47.822;7.564;2023-02-01T07:11:28;4.10;99.90
4647;DHT22;2336;47.822;7.564;2023-02-01T07:13:56;4.10;99.90
4647;DHT22;2336;47.822;7.564;2023-02-01T07:16:22;4.10;99.90
4647;DHT22;2336;47.822;7.564;2023-02-01T07:18:51;4.10;99.90
4647;DHT22;2336;47.822;7.564;2023-02-01T07:21:18;4.20;99.90
4647;DHT22;2336;47.822;7.564;2023-02-01T07:23:45;4.20;99.90
4647;DHT22;2336;47.822;7.564;2023-02-01T07:26:13;4.30;99.90
4647;DHT22;2336;47.822;7.564;2023-02-01T07:28:42;4.30;99.90
4647;DHT22;2336;47.822;7.564;2023-02-01T07:31:10;4.30;99.90
4647;DHT22;2336;47.822;7.564;2023-02-01T07:33:37;4.30;99.90
4647;DHT22;2336;47.822;7.564;2023-02-01T07:36:07;4.30;99.90
4647;DHT22;2336;47.822;7.564;2023-02-01T07:38:34;4.30;99.90
4647;DHT22;2336;47.822;7.564;2023-02-01T07:41:02;4.40;99.90
4647;DHT22;2336;47.822;7.564;2023-02-01T07:43:29;4.40;99.90
4647;DHT22;2336;47.822;7.564;2023-02-01T07:45:56;4.50;99.90
4647;DHT22;2336;47.822;7.564;2023-02-01T07:48:24;4.50;99.90
4647;DHT22;2336;47.822;7.564;2023-02-01T07:50:57;4.50;99.90
4647;DHT22;2336;47.822;7.564;2023-02-01T07:53:26;4.50;99.90
4647;DHT22;2336;47.822;7.564;2023-02-01T07:55:53;4.50;99.90
4647;DHT22;2336;47.822;7.564;2023-02-01T07:58:21;4.50;99.90
4647;DHT22;2336;47.822;7.564;2023-02-01T08:00:48;4.60;99.90
4647;DHT22;2336;47.822;7.564;2023-02-01T08:03:32;4.60;99.90
4647;DHT22;2336;47.822;7.564;2023-02-01T08:05:58;4.60;99.90
4647;DHT22;2336;47.822;7.564;2023-02-01T08:08:26;4.70;99.90
4647;DHT22;2336;47.822;7.564;2023-02-01T08:10:57;4.80;99.90
4647;DHT22;2336;47.822;7.564;2023-02-01T08:13:24;4.80;99.90
4647;DHT22;2336;47.822;7.564;2023-02-01T08:15:50;4.90;99.90
4647;DHT22;2336;47.822;7.564;2023-02-01T08:18:17;4.90;99.90
4647;DHT22;2336;47.822;7.564;2023-02-01T08:20:44;4.90;99.90
4647;DHT22;2336;47.822;7.564;2023-02-01T08:23:13;4.90;99.90
4647;DHT22;2336;47.822;7.564;2023-02-01T08:25:41;5.00;99.90
4647;DHT22;2336;47.822;7.564;2023-02-01T08:28:07;5.00;99.90
4647;DHT22;2336;47.822;7.564;2023-02-01T08:30:36;5.00;99.90
4647;DHT22;2336;47.822;7.564;2023-02-01T08:33:03;5.00;99.90
4647;DHT22;2336;47.822;7.564;2023-02-01T08:35:31;5.00;99.90
4647;DHT22;2336;47.822;7.564;2023-02-01T08:37:58;4.90;99.90
4647;DHT22;2336;47.822;7.564;2023-02-01T08:40:24;4.90;99.90
4647;DHT22;2336;47.822;7.564;2023-02-01T08:42:52;4.90;99.90
4647;DHT22;2336;47.822;7.564;2023-02-01T08:45:21;4.90;99.90
4647;DHT22;2336;47.822;7.564;2023-02-01T08:47:49;5.00;99.90
4647;DHT22;2336;47.822;7.564;2023-02-01T08:50:16;5.00;99.90
4647;DHT22;2336;47.822;7.564;2023-02-01T08:52:43;4.90;99.90
4647;DHT22;2336;47.822;7.564;2023-02-01T08:55:10;5.00;99.90
4647;DHT22;2336;47.822;7.564;2023-02-01T08:57:37;5.00;99.90
4647;DHT22;2336;47.822;7.564;2023-02-01T09:00:07;5.00;99.90
4647;DHT22;2336;47.822;7.564;2023-02-01T09:02:35;5.00;99.90
4647;DHT22;2336;47.822;7.564;2023-02-01T09:05:02;5.00;99.90
4647;DHT22;2336;47.822;7.564;2023-02-01T09:07:29;5.10;99.90
4647;DHT22;2336;47.822;7.564;2023-02-01T09:09:56;5.00;99.90
4647;DHT22;2336;47.822;7.564;2023-02-01T09:12:26;5.10;99.90
4647;DHT22;2336;47.822;7.564;2023-02-01T09:14:53;5.10;99.90
4647;DHT22;2336;47.822;7.564;2023-02-01T09:17:21;5.10;99.90
4647;DHT22;2336;47.822;7.564;2023-02-01T09:19:47;5.10;99.90
4647;DHT22;2336;47.822;7.564;2023-02-01T09:22:14;5.20;99.90
4647;DHT22;2336;47.822;7.564;2023-02-01T09:24:41;5.20;99.90
4647;DHT22;2336;47.822;7.564;2023-02-01T09:27:08;5.20;99.90
4647;DHT22;2336;47.822;7.564;2023-02-01T09:29:35;5.30;99.90
4647;DHT22;2336;47.822;7.564;2023-02-01T09:32:02;5.30;99.90
4647;DHT22;2336;47.822;7.564;2023-02-01T09:34:30;5.40;99.90
4647;DHT22;2336;47.822;7.564;2023-02-01T09:36:57;5.40;99.90
4647;DHT22;2336;47.822;7.564;2023-02-01T09:39:24;5.50;99.90
4647;DHT22;2336;47.822;7.564;2023-02-01T09:41:59;5.50;99.90
4647;DHT22;2336;47.822;7.564;2023-02-01T09:44:52;5.50;99.90
4647;DHT22;2336;47.822;7.564;2023-02-01T09:47:22;5.50;99.90
4647;DHT22;2336;47.822;7.564;2023-02-01T09:49:56;5.60;99.90
4647;DHT22;2336;47.822;7.564;2023-02-01T09:52:29;5.60;99.90
4647;DHT22;2336;47.822;7.564;2023-02-01T09:55:01;5.70;99.90
4647;DHT22;2336;47.822;7.564;2023-02-01T09:57:41;5.70;99.90
4647;DHT22;2336;47.822;7.564;2023-02-01T10:00:16;5.70;99.90
4647;DHT22;2336;47.822;7.564;2023-02-01T10:02:45;5.80;99.90
4647;DHT22;2336;47.822;7.564;2023-02-01T10:05:16;5.80;99.90
4647;DHT22;2336;47.822;7.564;2023-02-01T10:07:54;5.90;99.90
4647;DHT22;2336;47.822;7.564;2023-02-01T10:10:29;5.90;99.90
4647;DHT22;2336;47.822;7.564;2023-02-01T10:13:31;6.00;99.90
4647;DHT22;2336;47.822;7.564;2023-02-01T10:16:10;6.20;99.90
4647;DHT22;2336;47.822;7.564;2023-02-01T10:18:55;6.30;99.90
4647;DHT22;2336;47.822;7.564;2023-02-01T10:21:36;6.30;99.90
4647;DHT22;2336;47.822;7.564;2023-02-01T10:24:19;6.30;99.90
4647;DHT22;2336;47.822;7.564;2023-02-01T10:26:52;6.40;99.90
4647;DHT22;2336;47.822;7.564;2023-02-01T10:29:23;6.40;99.90
4647;DHT22;2336;47.822;7.564;2023-02-01T10:31:51;6.40;99.90
4647;DHT22;2336;47.822;7.564;2023-02-01T10:34:21;6.50;99.90
4647;DHT22;2336;47.822;7.564;2023-02-01T10:36:59;6.60;99.90
4647;DHT22;2336;47.822;7.564;2023-02-01T10:39:26;6.60;99.90
4647;DHT22;2336;47.822;7.564;2023-02-01T10:41:55;6.60;99.90
4647;DHT22;2336;47.822;7.564;2023-02-01T10:44:26;6.70;99.90
4647;DHT22;2336;47.822;7.564;2023-02-01T10:46:54;6.70;99.90
4647;DHT22;2336;47.822;7.564;2023-02-01T10:49:26;6.70;99.90
4647;DHT22;2336;47.822;7.564;2023-02-01T10:52:01;6.80;99.90
4647;DHT22;2336;47.822;7.564;2023-02-01T10:54:33;6.90;99.90
4647;DHT22;2336;47.822;7.564;2023-02-01T10:57:00;7.10;99.90
4647;DHT22;2336;47.822;7.564;2023-02-01T10:59:29;7.10;99.90
4647;DHT22;2336;47.822;7.564;2023-02-01T11:01:59;7.10;99.90
4647;DHT22;2336;47.822;7.564;2023-02-01T11:04:28;7.10;99.90
4647;DHT22;2336;47.822;7.564;2023-02-01T11:07:07;7.10;99.90
4647;DHT22;2336;47.822;7.564;2023-02-01T11:09:39;7.20;99.90
4647;DHT22;2336;47.822;7.564;2023-02-01T11:12:22;7.40;99.90
4647;DHT22;2336;47.822;7.564;2023-02-01T11:14:51;7.40;99.90
4647;DHT22;2336;47.822;7.564;2023-02-01T11:17:26;7.40;99.90
4647;DHT22;2336;47.822;7.564;2023-02-01T11:19:58;7.40;99.90
4647;DHT22;2336;47.822;7.564;2023-02-01T11:22:27;7.50;99.90
4647;DHT22;2336;47.822;7.564;2023-02-01T11:24:55;7.40;99.90
4647;DHT22;2336;47.822;7.564;2023-02-01T11:27:23;7.30;99.90
4647;DHT22;2336;47.822;7.564;2023-02-01T11:29:52;7.30;99.90
4647;DHT22;2336;47.822;7.564;2023-02-01T11:32:21;7.30;99.90
4647;DHT22;2336;47.822;7.564;2023-02-01T11:34:51;7.30;99.90
4647;DHT22;2336;47.822;7.564;2023-02-01T11:37:21;7.30;99.90
4647;DHT22;2336;47.822;7.564;2023-02-01T11:39:56;7.20;99.90
4647;DHT22;2336;47.822;7.564;2023-02-01T11:42:23;7.30;99.90
4647;DHT22;2336;47.822;7.564;2023-02-01T11:44:51;7.20;99.90
4647;DHT22;2336;47.822;7.564;2023-02-01T11:47:21;7.10;99.90
4647;DHT22;2336;47.822;7.564;2023-02-01T11:49:48;7.10;99.90
4647;DHT22;2336;47.822;7.564;2023-02-01T11:52:22;7.10;99.90
4647;DHT22;2336;47.822;7.564;2023-02-01T11:55:03;7.20;99.90
4647;DHT22;2336;47.822;7.564;2023-02-01T11:57:44;7.20;99.90
4647;DHT22;2336;47.822;7.564;2023-02-01T12:00:28;7.20;99.90
4647;DHT22;2336;47.822;7.564;2023-02-01T12:03:11;7.20;99.90
4647;DHT22;2336;47.822;7.564;2023-02-01T12:05:50;7.20;99.90
4647;DHT22;2336;47.822;7.564;2023-02-01T12:08:34;7.20;99.90
4647;DHT22;2336;47.822;7.564;2023-02-01T12:11:18;7.10;99.90
4647;DHT22;2336;47.822;7.564;2023-02-01T12:13:55;7.20;99.90
4647;DHT22;2336;47.822;7.564;2023-02-01T12:16:33;7.20;99.90
4647;DHT22;2336;47.822;7.564;2023-02-01T12:19:20;7.20;99.90
4647;DHT22;2336;47.822;7.564;2023-02-01T12:22:03;7.30;99.90
4647;DHT22;2336;47.822;7.564;2023-02-01T12:24:58;7.30;99.90
4647;DHT22;2336;47.822;7.564;2023-02-01T12:28:00;7.30;99.90
4647;DHT22;2336;47.822;7.564;2023-02-01T12:30:52;7.30;99.90
4647;DHT22;2336;47.822;7.564;2023-02-01T12:33:30;7.30;99.90
4647;DHT22;2336;47.822;7.564;2023-02-01T12:36:10;7.30;99.90
4647;DHT22;2336;47.822;7.564;2023-02-01T12:38:52;7.30;99.90
4647;DHT22;2336;47.822;7.564;2023-02-01T12:41:37;7.40;99.90
4647;DHT22;2336;47.822;7.564;2023-02-01T12:44:13;7.30;99.90
4647;DHT22;2336;47.822;7.564;2023-02-01T12:46:46;7.30;99.90
4647;DHT22;2336;47.822;7.564;2023-02-01T12:49:16;7.20;99.90
4647;DHT22;2336;47.822;7.564;2023-02-01T12:51:47;7.30;99.90
4647;DHT22;2336;47.822;7.564;2023-02-01T12:54:20;7.20;99.90
4647;DHT22;2336;47.822;7.564;2023-02-01T12:56:51;7.10;99.90
4647;DHT22;2336;47.822;7.564;2023-02-01T12:59:26;7.10;99.90
4647;DHT22;2336;47.822;7.564;2023-02-01T13:01:56;7.10;99.90
4647;DHT22;2336;47.822;7.564;2023-02-01T13:04:32;7.00;99.90
4647;DHT22;2336;47.822;7.564;2023-02-01T13:07:06;7.10;99.90
4647;DHT22;2336;47.822;7.564;2023-02-01T13:09:38;7.20;99.90
4647;DHT22;2336;47.822;7.564;2023-02-01T13:12:11;7.20;99.90
4647;DHT22;2336;47.822;7.564;2023-02-01T13:14:44;7.20;99.90
4647;DHT22;2336;47.822;7.564;2023-02-01T13:17:15;7.20;99.90
4647;DHT22;2336;47.822;7.564;2023-02-01T13:19:47;7.20;99.90
4647;DHT22;2336;47.822;7.564;2023-02-01T13:22:19;7.10;99.90
4647;DHT22;2336;47.822;7.564;2023-02-01T13:24:49;7.10;99.90
4647;DHT22;2336;47.822;7.564;2023-02-01T13:27:17;7.10;99.90
4647;DHT22;2336;47.822;7.564;2023-02-01T13:29:54;7.10;99.90
4647;DHT22;2336;47.822;7.564;2023-02-01T13:32:37;7.20;99.90
4647;DHT22;2336;47.822;7.564;2023-02-01T13:35:26;7.20;99.90
4647;DHT22;2336;47.822;7.564;2023-02-01T13:38:11;7.30;99.90
4647;DHT22;2336;47.822;7.564;2023-02-01T13:40:44;7.20;99.90
4647;DHT22;2336;47.822;7.564;2023-02-01T13:43:17;7.30;99.90
4647;DHT22;2336;47.822;7.564;2023-02-01T13:45:50;7.30;99.90
4647;DHT22;2336;47.822;7.564;2023-02-01T13:48:23;7.30;99.90
4647;DHT22;2336;47.822;7.564;2023-02-01T13:50:54;7.20;99.90
4647;DHT22;2336;47.822;7.564;2023-02-01T13:53:26;7.20;99.90
4647;DHT22;2336;47.822;7.564;2023-02-01T13:56:00;7.20;99.90
4647;DHT22;2336;47.822;7.564;2023-02-01T13:58:32;7.10;99.90
4647;DHT22;2336;47.822;7.564;2023-02-01T14:01:37;7.20;99.90
4647;DHT22;2336;47.822;7.564;2023-02-01T14:04:05;7.20;99.90
4647;DHT22;2336;47.822;7.564;2023-02-01T14:06:39;7.20;99.90
4647;DHT22;2336;47.822;7.564;2023-02-01T14:09:19;7.20;99.90
4647;DHT22;2336;47.822;7.564;2023-02-01T14:11:57;7.20;99.90
4647;DHT22;2336;47.822;7.564;2023-02-01T14:14:45;7.30;99.90
4647;DHT22;2336;47.822;7.564;2023-02-01T14:17:37;7.20;99.90
4647;DHT22;2336;47.822;7.564;2023-02-01T14:23:23;7.30;99.90
4647;DHT22;2336;47.822;7.564;2023-02-01T14:26:05;7.10;99.90
4647;DHT22;2336;47.822;7.564;2023-02-01T14:28:36;7.10;99.90
4647;DHT22;2336;47.822;7.564;2023-02-01T14:31:25;7.10;99.90
4647;DHT22;2336;47.822;7.564;2023-02-01T14:33:59;7.10;99.90
4647;DHT22;2336;47.822;7.564;2023-02-01T14:36:27;7.00;99.90
4647;DHT22;2336;47.822;7.564;2023-02-01T14:39:16;7.00;99.90
4647;DHT22;2336;47.822;7.564;2023-02-01T14:41:46;7.00;99.90
4647;DHT22;2336;47.822;7.564;2023-02-01T14:44:24;7.00;99.90
4647;DHT22;2336;47.822;7.564;2023-02-01T14:47:11;6.90;99.90
4647;DHT22;2336;47.822;7.564;2023-02-01T14:49:56;6.90;99.90
4647;DHT22;2336;47.822;7.564;2023-02-01T14:52:29;6.90;99.90
4647;DHT22;2336;47.822;7.564;2023-02-01T14:55:01;6.90;99.90
4647;DHT22;2336;47.822;7.564;2023-02-01T14:57:31;7.00;99.90
4647;DHT22;2336;47.822;7.564;2023-02-01T15:00:06;6.90;99.90
4647;DHT22;2336;47.822;7.564;2023-02-01T15:02:35;6.90;99.90
4647;DHT22;2336;47.822;7.564;2023-02-01T15:05:28;6.90;99.90
4647;DHT22;2336;47.822;7.564;2023-02-01T15:08:04;7.00;99.90
4647;DHT22;2336;47.822;7.564;2023-02-01T15:10:33;7.00;99.90
4647;DHT22;2336;47.822;7.564;2023-02-01T15:13:17;7.00;99.90
4647;DHT22;2336;47.822;7.564;2023-02-01T15:15:44;7.00;99.90
4647;DHT22;2336;47.822;7.564;2023-02-01T15:18:16;7.00;99.90
4647;DHT22;2336;47.822;7.564;2023-02-01T15:20:56;7.00;99.90
4647;DHT22;2336;47.822;7.564;2023-02-01T15:23:23;7.00;99.90
4647;DHT22;2336;47.822;7.564;2023-02-01T15:25:49;7.00;99.90
4647;DHT22;2336;47.822;7.564;2023-02-01T15:28:17;7.00;99.90
4647;DHT22;2336;47.822;7.564;2023-02-01T15:30:53;7.00;99.90
4647;DHT22;2336;47.822;7.564;2023-02-01T15:33:20;7.10;99.90
4647;DHT22;2336;47.822;7.564;2023-02-01T15:35:50;7.00;99.90
4647;DHT22;2336;47.822;7.564;2023-02-01T15:38:35;7.00;99.90
4647;DHT22;2336;47.822;7.564;2023-02-01T15:41:05;7.00;99.90
4647;DHT22;2336;47.822;7.564;2023-02-01T15:43:36;6.90;99.90
4647;DHT22;2336;47.822;7.564;2023-02-01T15:46:07;6.90;99.90
4647;DHT22;2336;47.822;7.564;2023-02-01T15:48:37;6.90;99.90
4647;DHT22;2336;47.822;7.564;2023-02-01T15:51:12;6.90;99.90
4647;DHT22;2336;47.822;7.564;2023-02-01T15:53:44;6.90;99.90
4647;DHT22;2336;47.822;7.564;2023-02-01T15:56:12;6.90;99.90
4647;DHT22;2336;47.822;7.564;2023-02-01T15:58:42;6.90;99.90
4647;DHT22;2336;47.822;7.564;2023-02-01T16:01:12;6.90;99.90
4647;DHT22;2336;47.822;7.564;2023-02-01T16:03:40;6.80;99.90
4647;DHT22;2336;47.822;7.564;2023-02-01T16:06:10;6.80;99.90
4647;DHT22;2336;47.822;7.564;2023-02-01T16:08:48;6.80;99.90
4647;DHT22;2336;47.822;7.564;2023-02-01T16:11:22;6.80;99.90
4647;DHT22;2336;47.822;7.564;2023-02-01T16:13:49;6.80;99.90
4647;DHT22;2336;47.822;7.564;2023-02-01T16:16:16;6.80;99.90
4647;DHT22;2336;47.822;7.564;2023-02-01T16:18:43;6.80;99.90
4647;DHT22;2336;47.822;7.564;2023-02-01T16:21:11;6.70;99.90
4647;DHT22;2336;47.822;7.564;2023-02-01T16:23:38;6.70;99.90
4647;DHT22;2336;47.822;7.564;2023-02-01T16:26:05;6.70;99.90
4647;DHT22;2336;47.822;7.564;2023-02-01T16:28:32;6.70;99.90
4647;DHT22;2336;47.822;7.564;2023-02-01T16:31:00;6.70;99.90
4647;DHT22;2336;47.822;7.564;2023-02-01T16:33:27;6.70;99.90
4647;DHT22;2336;47.822;7.564;2023-02-01T16:35:56;6.60;99.90
4647;DHT22;2336;47.822;7.564;2023-02-01T16:38:26;6.70;99.90
4647;DHT22;2336;47.822;7.564;2023-02-01T16:40:53;6.60;99.90
4647;DHT22;2336;47.822;7.564;2023-02-01T16:43:24;6.60;99.90
4647;DHT22;2336;47.822;7.564;2023-02-01T16:45:54;6.60;99.90
4647;DHT22;2336;47.822;7.564;2023-02-01T16:48:24;6.60;99.90
4647;DHT22;2336;47.822;7.564;2023-02-01T16:50:54;6.50;99.90
4647;DHT22;2336;47.822;7.564;2023-02-01T16:53:22;6.50;99.90